createdAt,value
2022-08-30T00:01:14.182Z,15.46
2022-08-30T00:03:46.443Z,15.49
2022-08-30T00:06:19.682Z,15.35
2022-08-30T00:08:46.545Z,15.36
2022-08-30T00:11:16.682Z,15.28
2022-08-30T00:13:45.723Z,15.21
2022-08-30T00:16:13.320Z,15.18
2022-08-30T00:18:41.121Z,15.17
2022-08-30T00:21:07.878Z,15.13
2022-08-30T00:23:34.397Z,15.15
2022-08-30T00:26:02.582Z,15.10
2022-08-30T00:28:30.208Z,15.14
2022-08-30T00:30:56.710Z,14.94
2022-08-30T00:33:23.619Z,14.87
2022-08-30T00:35:50.525Z,14.82
2022-08-30T00:38:17.159Z,14.68
2022-08-30T00:40:45.159Z,14.68
2022-08-30T00:43:16.700Z,14.67
2022-08-30T00:45:46.478Z,14.61
2022-08-30T00:48:13.266Z,14.55
2022-08-30T00:50:49.109Z,14.58
2022-08-30T00:53:26.749Z,14.46
2022-08-30T00:55:55.032Z,14.40
2022-08-30T00:58:27.637Z,14.35
2022-08-30T01:00:57.037Z,14.32
2022-08-30T01:03:24.462Z,14.32
2022-08-30T01:05:51.831Z,14.34
2022-08-30T01:08:22.059Z,14.25
2022-08-30T01:10:50.718Z,14.19
2022-08-30T01:13:18.051Z,14.14
2022-08-30T01:15:46.293Z,14.04
2022-08-30T01:18:14.402Z,14.09
2022-08-30T01:21:10.311Z,13.97
2022-08-30T01:23:41.301Z,13.90
2022-08-30T01:26:10.355Z,13.87
2022-08-30T01:28:40.491Z,13.81
2022-08-30T01:31:08.051Z,13.82
2022-08-30T01:33:38.299Z,13.86
2022-08-30T01:36:11.299Z,13.80
2022-08-30T01:38:53.810Z,13.82
2022-08-30T01:41:31.418Z,13.88
2022-08-30T01:44:00.762Z,13.74
2022-08-30T01:46:36.032Z,13.69
2022-08-30T01:49:06.843Z,13.66
2022-08-30T01:51:33.572Z,13.68
2022-08-30T01:54:00.779Z,13.62
2022-08-30T01:56:29.287Z,13.53
2022-08-30T01:59:01.811Z,13.48
2022-08-30T02:01:32.589Z,13.51
2022-08-30T02:03:59.538Z,13.48
2022-08-30T02:06:26.680Z,13.50
2022-08-30T02:08:53.539Z,13.50
2022-08-30T02:11:19.990Z,13.51
2022-08-30T02:13:46.822Z,13.48
2022-08-30T02:16:17.828Z,13.36
2022-08-30T02:18:45.232Z,13.29
2022-08-30T02:21:13.332Z,13.26
2022-08-30T02:23:41.490Z,13.26
2022-08-30T02:26:08.686Z,13.28
2022-08-30T02:28:35.617Z,13.26
2022-08-30T02:31:09.872Z,13.20
2022-08-30T02:33:36.594Z,13.23
2022-08-30T02:36:08.846Z,13.33
2022-08-30T02:38:35.772Z,13.28
2022-08-30T02:41:02.668Z,13.20
2022-08-30T02:43:29.174Z,13.28
2022-08-30T02:45:56.040Z,13.21
2022-08-30T02:48:22.578Z,13.14
2022-08-30T02:50:51.917Z,13.19
2022-08-30T02:53:21.016Z,13.19
2022-08-30T02:55:48.472Z,13.27
2022-08-30T02:58:15.557Z,13.26
2022-08-30T03:00:42.764Z,13.29
2022-08-30T03:03:09.510Z,13.42
2022-08-30T03:05:39.778Z,13.32
2022-08-30T03:08:07.874Z,13.26
2022-08-30T03:10:34.574Z,13.30
2022-08-30T03:13:01.286Z,13.33
2022-08-30T03:15:28.067Z,13.29
2022-08-30T03:17:55.033Z,13.33
2022-08-30T03:20:24.495Z,13.37
2022-08-30T03:22:51.883Z,13.48
2022-08-30T03:25:20.717Z,13.42
2022-08-30T03:27:47.846Z,13.38
2022-08-30T03:30:14.442Z,13.32
2022-08-30T03:32:43.127Z,13.36
2022-08-30T03:35:10.528Z,13.36
2022-08-30T03:37:37.237Z,13.44
2022-08-30T03:40:09.162Z,13.52
2022-08-30T03:42:37.868Z,13.55
2022-08-30T03:45:08.389Z,13.51
2022-08-30T03:47:34.933Z,13.51
2022-08-30T03:50:02.067Z,13.48
2022-08-30T03:52:28.538Z,13.50
2022-08-30T03:54:56.746Z,13.46
2022-08-30T03:57:24.548Z,13.44
2022-08-30T03:59:52.029Z,13.55
2022-08-30T04:02:19.125Z,13.61
2022-08-30T04:04:45.646Z,13.74
2022-08-30T04:07:12.751Z,13.74
2022-08-30T04:09:39.403Z,13.80
2022-08-30T04:12:06.027Z,13.83
2022-08-30T04:14:32.529Z,13.92
2022-08-30T04:16:59.166Z,13.92
2022-08-30T04:19:25.656Z,13.94
2022-08-30T04:21:53.431Z,13.93
2022-08-30T04:24:19.980Z,14.00
2022-08-30T04:26:46.690Z,14.09
2022-08-30T04:29:16.883Z,14.04
2022-08-30T04:31:44.434Z,14.01
2022-08-30T04:34:12.854Z,14.06
2022-08-30T04:36:39.841Z,14.01
2022-08-30T04:39:06.915Z,13.98
2022-08-30T04:41:33.988Z,14.01
2022-08-30T04:44:03.494Z,14.02
2022-08-30T04:46:30.447Z,14.08
2022-08-30T04:48:57.006Z,14.06
2022-08-30T04:51:23.437Z,14.13
2022-08-30T04:53:49.957Z,14.00
2022-08-30T04:56:22.150Z,13.99
2022-08-30T04:58:50.530Z,13.95
2022-08-30T05:01:23.893Z,13.90
2022-08-30T05:03:59.524Z,13.88
2022-08-30T05:06:28.194Z,13.86
2022-08-30T05:08:55.831Z,14.07
2022-08-30T05:11:23.312Z,14.05
2022-08-30T05:13:50.022Z,13.90
2022-08-30T05:16:18.634Z,13.82
2022-08-30T05:18:47.726Z,13.80
2022-08-30T05:21:18.176Z,13.86
2022-08-30T05:23:46.103Z,13.66
2022-08-30T05:26:19.310Z,13.78
2022-08-30T05:28:46.150Z,13.69
2022-08-30T05:31:16.123Z,13.67
2022-08-30T05:33:43.768Z,13.65
2022-08-30T05:36:14.441Z,13.68
2022-08-30T05:38:41.622Z,13.62
2022-08-30T05:41:10.866Z,13.67
2022-08-30T05:43:38.758Z,13.59
2022-08-30T05:46:08.607Z,13.58
2022-08-30T05:48:37.046Z,13.55
2022-08-30T05:51:15.348Z,13.57
2022-08-30T05:53:42.621Z,13.63
2022-08-30T05:56:13.721Z,13.68
2022-08-30T05:58:41.783Z,13.75
2022-08-30T06:01:24.751Z,13.88
2022-08-30T06:03:54.692Z,13.88
2022-08-30T06:06:21.722Z,13.83
2022-08-30T06:08:49.016Z,13.89
2022-08-30T06:11:17.798Z,13.94
2022-08-30T06:13:44.369Z,13.94
2022-08-30T06:16:16.112Z,14.02
2022-08-30T06:18:42.969Z,14.03
2022-08-30T06:21:16.505Z,14.12
2022-08-30T06:23:44.626Z,14.21
2022-08-30T06:26:14.193Z,14.29
2022-08-30T06:28:41.509Z,14.32
2022-08-30T06:31:10.370Z,14.41
2022-08-30T06:33:37.054Z,14.35
2022-08-30T06:36:06.271Z,14.26
2022-08-30T06:38:32.962Z,14.30
2022-08-30T06:40:59.455Z,14.43
2022-08-30T06:43:26.055Z,14.64
2022-08-30T06:45:53.394Z,14.69
2022-08-30T06:48:19.966Z,14.64
2022-08-30T06:50:53.800Z,14.61
2022-08-30T06:53:20.405Z,14.66
2022-08-30T06:55:56.253Z,14.73
2022-08-30T06:58:23.145Z,14.76
2022-08-30T07:00:49.571Z,14.81
2022-08-30T07:03:16.200Z,14.81
2022-08-30T07:05:42.853Z,14.90
2022-08-30T07:08:09.430Z,14.94
2022-08-30T07:10:39.336Z,14.84
2022-08-30T07:13:05.779Z,14.77
2022-08-30T07:15:38.063Z,14.60
2022-08-30T07:18:23.625Z,14.68
2022-08-30T07:20:50.059Z,14.81
2022-08-30T07:23:16.935Z,14.81
2022-08-30T07:25:43.717Z,14.92
2022-08-30T07:28:10.888Z,14.91
2022-08-30T07:30:38.780Z,14.80
2022-08-30T07:33:05.373Z,14.68
2022-08-30T07:35:32.060Z,14.72
2022-08-30T07:37:59.256Z,14.70
2022-08-30T07:40:26.582Z,14.74
2022-08-30T07:42:53.683Z,14.86
2022-08-30T07:45:20.803Z,14.75
2022-08-30T07:47:47.310Z,14.80
2022-08-30T07:50:14.094Z,14.94
2022-08-30T07:52:40.858Z,15.10
2022-08-30T07:55:07.913Z,15.22
2022-08-30T07:57:34.621Z,15.33
2022-08-30T08:00:04.019Z,15.35
2022-08-30T08:02:40.610Z,15.34
2022-08-30T08:05:08.274Z,15.17
2022-08-30T08:07:35.450Z,15.07
2022-08-30T08:10:02.813Z,15.02
2022-08-30T08:12:29.984Z,15.15
2022-08-30T08:14:56.441Z,15.30
2022-08-30T08:17:22.900Z,15.43
2022-08-30T08:19:49.381Z,15.61
2022-08-30T08:22:23.332Z,15.79
2022-08-30T08:24:50.154Z,15.83
2022-08-30T08:27:17.004Z,15.61
2022-08-30T08:29:45.252Z,15.70
2022-08-30T08:32:12.177Z,15.87
2022-08-30T08:34:38.718Z,15.98
2022-08-30T08:37:05.179Z,16.05
2022-08-30T08:39:31.969Z,16.12
2022-08-30T08:42:20.415Z,16.15
2022-08-30T08:45:13.056Z,16.41
2022-08-30T08:48:01.473Z,16.36
2022-08-30T08:50:31.404Z,16.43
2022-08-30T08:53:46.402Z,16.54
2022-08-30T08:56:17.346Z,16.73
2022-08-30T08:58:53.170Z,16.84
2022-08-30T09:01:23.964Z,16.91
2022-08-30T09:03:51.877Z,17.17
2022-08-30T09:06:56.549Z,17.04
2022-08-30T09:09:42.920Z,17.14
2022-08-30T09:12:11.647Z,16.96
2022-08-30T09:14:46.627Z,16.95
2022-08-30T09:17:16.174Z,16.88
2022-08-30T09:19:45.710Z,16.98
2022-08-30T09:22:38.748Z,17.12
2022-08-30T09:25:13.123Z,17.22
2022-08-30T09:27:45.596Z,17.41
2022-08-30T09:30:21.987Z,17.40
2022-08-30T09:33:02.211Z,17.47
2022-08-30T09:35:42.296Z,17.78
2022-08-30T09:38:13.157Z,17.53
2022-08-30T09:40:53.435Z,17.62
2022-08-30T09:43:23.475Z,17.88
2022-08-30T09:46:01.238Z,17.93
2022-08-30T09:48:40.613Z,18.19
2022-08-30T09:51:10.208Z,18.28
2022-08-30T09:54:16.735Z,18.30
2022-08-30T09:56:49.088Z,18.47
2022-08-30T09:59:34.273Z,18.49
2022-08-30T10:02:00.726Z,18.45
2022-08-30T10:04:44.134Z,18.19
2022-08-30T10:07:18.199Z,18.21
2022-08-30T10:10:01.153Z,18.24
2022-08-30T10:12:59.379Z,18.35
2022-08-30T10:15:32.358Z,18.37
2022-08-30T10:18:05.049Z,18.35
2022-08-30T10:20:47.289Z,18.28
2022-08-30T10:23:25.004Z,18.29
2022-08-30T10:26:22.820Z,18.24
2022-08-30T10:29:00.056Z,18.22
2022-08-30T10:31:40.466Z,18.46
2022-08-30T10:34:14.041Z,18.48
2022-08-30T10:36:46.818Z,18.67
2022-08-30T10:39:22.119Z,18.78
2022-08-30T10:42:11.628Z,18.66
2022-08-30T10:44:45.361Z,18.65
2022-08-30T10:47:26.949Z,18.67
2022-08-30T10:50:10.697Z,18.95
2022-08-30T10:52:52.054Z,18.98
2022-08-30T10:55:30.107Z,19.12
2022-08-30T10:58:02.723Z,19.21
2022-08-30T11:00:39.147Z,19.28
2022-08-30T11:03:36.247Z,19.11
2022-08-30T11:06:14.156Z,19.28
2022-08-30T11:09:08.542Z,19.50
2022-08-30T11:11:51.884Z,19.95
2022-08-30T11:14:20.759Z,20.32
2022-08-30T11:16:54.875Z,20.48
2022-08-30T11:19:32.364Z,20.28
2022-08-30T11:22:24.128Z,20.46
2022-08-30T11:25:14.246Z,20.45
2022-08-30T11:27:45.820Z,20.73
2022-08-30T11:30:24.526Z,20.80
2022-08-30T11:33:23.965Z,20.93
2022-08-30T11:35:53.670Z,20.62
2022-08-30T11:38:40.064Z,20.77
2022-08-30T11:41:11.575Z,21.10
2022-08-30T11:43:40.174Z,21.17
2022-08-30T11:46:21.016Z,21.38
2022-08-30T11:49:08.135Z,21.14
2022-08-30T11:51:44.071Z,21.51
2022-08-30T11:54:52.906Z,21.51
2022-08-30T11:57:30.126Z,21.77
2022-08-30T12:00:25.825Z,21.61
2022-08-30T12:02:55.899Z,21.68
2022-08-30T12:05:48.041Z,21.71
2022-08-30T12:08:20.512Z,21.80
2022-08-30T12:10:48.883Z,21.90
2022-08-30T12:13:34.111Z,21.65
2022-08-30T12:16:05.155Z,21.64
2022-08-30T12:18:55.396Z,21.89
2022-08-30T12:21:22.467Z,22.06
2022-08-30T12:24:16.280Z,22.33
2022-08-30T12:26:45.005Z,22.43
2022-08-30T12:29:26.304Z,22.24
2022-08-30T12:32:00.366Z,22.14
2022-08-30T12:34:33.152Z,22.39
2022-08-30T12:37:08.465Z,22.38
2022-08-30T12:39:41.861Z,22.66
2022-08-30T12:42:22.629Z,22.50
2022-08-30T12:44:51.814Z,22.76
2022-08-30T12:47:26.711Z,23.04
2022-08-30T12:49:55.063Z,23.35
2022-08-30T12:52:38.662Z,23.27
2022-08-30T12:55:17.393Z,23.39
2022-08-30T12:58:01.306Z,23.41
2022-08-30T13:00:41.987Z,23.71
2022-08-30T13:03:39.221Z,23.90
2022-08-30T13:06:10.042Z,23.66
2022-08-30T13:08:51.788Z,23.76
2022-08-30T13:11:21.277Z,23.73
2022-08-30T13:13:52.294Z,23.89
2022-08-30T13:16:22.835Z,23.96
2022-08-30T13:18:55.512Z,24.24
2022-08-30T13:21:33.735Z,24.16
2022-08-30T13:24:04.513Z,24.04
2022-08-30T13:26:34.010Z,23.87
2022-08-30T13:29:05.088Z,23.97
2022-08-30T13:31:37.618Z,24.05
2022-08-30T13:34:05.055Z,24.34
2022-08-30T13:36:35.505Z,24.45
2022-08-30T13:39:03.399Z,24.55
2022-08-30T13:41:34.449Z,24.67
2022-08-30T13:44:13.105Z,24.71
2022-08-30T13:46:44.769Z,24.57
2022-08-30T13:52:20.508Z,24.02
2022-08-30T13:54:50.392Z,24.11
2022-08-30T13:57:53.677Z,24.22
2022-08-30T14:00:12.525Z,24.29
2022-08-30T14:02:45.401Z,24.31
2022-08-30T14:05:31.094Z,24.44
2022-08-30T14:08:05.138Z,24.70
2022-08-30T14:10:37.847Z,24.85
2022-08-30T14:13:12.431Z,24.90
2022-08-30T14:15:41.566Z,24.97
2022-08-30T14:18:08.932Z,24.93
2022-08-30T14:20:38.502Z,25.10
2022-08-30T14:23:07.611Z,25.21
2022-08-30T14:25:37.716Z,25.04
2022-08-30T14:28:07.917Z,25.14
2022-08-30T14:30:36.674Z,24.92
2022-08-30T14:33:03.629Z,25.07
2022-08-30T14:35:30.298Z,25.31
2022-08-30T14:37:57.280Z,24.60
2022-08-30T14:40:23.979Z,24.52
2022-08-30T14:42:50.492Z,24.23
2022-08-30T14:45:18.281Z,24.02
2022-08-30T14:47:46.131Z,23.94
2022-08-30T14:50:14.413Z,23.83
2022-08-30T14:52:41.261Z,23.59
2022-08-30T14:55:12.728Z,23.46
2022-08-30T14:57:39.478Z,23.15
2022-08-30T15:00:08.981Z,23.09
2022-08-30T15:02:35.462Z,22.89
2022-08-30T15:05:04.186Z,22.81
2022-08-30T15:07:35.338Z,22.71
2022-08-30T15:10:02.769Z,22.74
2022-08-30T15:12:29.248Z,22.70
2022-08-30T15:14:56.145Z,22.64
2022-08-30T15:17:22.570Z,22.54
2022-08-30T15:19:49.259Z,22.56
2022-08-30T15:22:16.461Z,22.43
2022-08-30T15:24:43.632Z,22.41
2022-08-30T15:27:15.528Z,22.39
2022-08-30T15:29:42.235Z,22.41
2022-08-30T15:32:08.815Z,22.33
2022-08-30T15:34:35.913Z,22.33
2022-08-30T15:37:02.564Z,22.44
2022-08-30T15:39:29.656Z,22.69
2022-08-30T15:42:00.630Z,22.88
2022-08-30T15:44:28.417Z,23.03
2022-08-30T15:46:55.529Z,23.22
2022-08-30T15:49:23.706Z,23.30
2022-08-30T15:51:54.405Z,23.29
2022-08-30T15:54:23.488Z,23.31
2022-08-30T15:56:51.647Z,23.42
2022-08-30T15:59:19.315Z,23.31
2022-08-30T16:01:47.725Z,23.20
2022-08-30T16:04:17.092Z,22.90
2022-08-30T16:06:45.457Z,22.75
2022-08-30T16:09:12.237Z,22.78
2022-08-30T16:11:38.893Z,22.84
2022-08-30T16:14:06.751Z,22.87
2022-08-30T16:16:34.934Z,22.86
2022-08-30T16:19:02.305Z,22.81
2022-08-30T16:21:31.354Z,22.73
2022-08-30T16:24:01.519Z,22.71
2022-08-30T16:26:29.574Z,22.66
2022-08-30T16:28:56.499Z,22.64
2022-08-30T16:31:24.277Z,22.50
2022-08-30T16:33:53.150Z,22.36
2022-08-30T16:36:21.772Z,22.47
2022-08-30T16:38:49.075Z,22.45
2022-08-30T16:41:21.408Z,22.44
2022-08-30T16:43:49.410Z,22.43
2022-08-30T16:46:22.598Z,22.33
2022-08-30T16:48:49.940Z,22.30
2022-08-30T16:51:19.593Z,22.16
2022-08-30T16:53:46.721Z,22.08
2022-08-30T16:56:21.256Z,21.87
2022-08-30T16:58:48.793Z,21.74
2022-08-30T17:01:18.952Z,21.61
2022-08-30T17:03:49.612Z,21.53
2022-08-30T17:06:17.542Z,21.53
2022-08-30T17:08:47.131Z,21.51
2022-08-30T17:11:14.637Z,21.41
2022-08-30T17:13:42.209Z,21.37
2022-08-30T17:16:11.440Z,21.21
2022-08-30T17:18:38.299Z,21.19
2022-08-30T17:21:05.462Z,21.25
2022-08-30T17:23:34.869Z,21.19
2022-08-30T17:26:02.753Z,21.12
2022-08-30T17:28:29.305Z,20.94
2022-08-30T17:30:56.338Z,20.80
2022-08-30T17:33:23.111Z,20.85
2022-08-30T17:35:50.109Z,20.78
2022-08-30T17:38:17.206Z,20.70
2022-08-30T17:40:43.954Z,20.55
2022-08-30T17:43:10.874Z,20.65
2022-08-30T17:45:37.656Z,20.60
2022-08-30T17:48:06.974Z,20.48
2022-08-30T17:50:36.731Z,20.43
2022-08-30T17:53:03.774Z,20.33
2022-08-30T17:55:30.852Z,20.26
2022-08-30T17:57:57.465Z,20.31
2022-08-30T18:00:28.834Z,20.21
2022-08-30T18:02:56.288Z,20.12
2022-08-30T18:05:24.583Z,19.98
2022-08-30T18:07:51.852Z,19.85
2022-08-30T18:10:18.686Z,19.86
2022-08-30T18:12:45.179Z,19.68
2022-08-30T18:15:12.811Z,19.79
2022-08-30T18:17:44.458Z,19.77
2022-08-30T18:20:11.574Z,19.68
2022-08-30T18:22:38.099Z,19.58
2022-08-30T18:25:05.896Z,19.51
2022-08-30T18:27:32.407Z,19.40
2022-08-30T18:29:59.238Z,19.47
2022-08-30T18:32:35.923Z,19.40
2022-08-30T18:35:05.592Z,19.29
2022-08-30T18:37:32.347Z,19.24
2022-08-30T18:39:59.483Z,19.17
2022-08-30T18:42:27.609Z,19.15
2022-08-30T18:44:54.267Z,19.13
2022-08-30T18:47:23.153Z,19.12
2022-08-30T18:49:50.295Z,19.04
2022-08-30T18:52:17.084Z,19.04
2022-08-30T18:54:52.602Z,18.95
2022-08-30T18:57:20.773Z,18.94
2022-08-30T18:59:48.725Z,18.84
2022-08-30T19:02:17.494Z,18.81
2022-08-30T19:04:45.452Z,18.68
2022-08-30T19:07:15.242Z,18.69
2022-08-30T19:09:42.590Z,18.68
2022-08-30T19:12:11.611Z,18.67
2022-08-30T19:14:38.985Z,18.55
2022-08-30T19:17:07.243Z,18.50
2022-08-30T19:19:35.251Z,18.39
2022-08-30T19:22:12.303Z,18.42
2022-08-30T19:24:38.979Z,18.33
2022-08-30T19:27:05.533Z,18.28
2022-08-30T19:29:32.045Z,18.29
2022-08-30T19:31:58.526Z,18.17
2022-08-30T19:34:25.157Z,18.13
2022-08-30T19:36:52.313Z,18.09
2022-08-30T19:39:19.358Z,18.06
2022-08-30T19:41:46.821Z,17.99
2022-08-30T19:44:13.665Z,17.94
2022-08-30T19:46:40.201Z,17.87
2022-08-30T19:49:10.191Z,17.84
2022-08-30T19:51:38.810Z,17.86
2022-08-30T19:54:14.646Z,17.85
2022-08-30T19:56:41.277Z,17.81
2022-08-30T19:59:07.738Z,17.81
2022-08-30T20:01:34.554Z,17.76
2022-08-30T20:04:03.326Z,17.72
2022-08-30T20:06:30.807Z,17.66
2022-08-30T20:08:59.808Z,17.71
2022-08-30T20:11:28.035Z,17.71
2022-08-30T20:13:55.128Z,17.64
2022-08-30T20:16:33.037Z,17.56
2022-08-30T20:19:05.545Z,17.49
2022-08-30T20:21:32.657Z,17.44
2022-08-30T20:24:00.732Z,17.47
2022-08-30T20:26:33.612Z,17.38
2022-08-30T20:29:02.468Z,17.34
2022-08-30T20:31:29.271Z,17.37
2022-08-30T20:33:55.831Z,17.31
2022-08-30T20:36:22.277Z,17.36
2022-08-30T20:38:48.952Z,17.38
2022-08-30T20:41:17.182Z,17.30
2022-08-30T20:43:45.183Z,17.25
2022-08-30T20:46:20.131Z,17.21
2022-08-30T20:48:47.698Z,17.18
2022-08-30T20:51:17.863Z,17.20
2022-08-30T20:53:45.437Z,17.13
2022-08-30T20:56:13.713Z,17.15
2022-08-30T20:58:40.217Z,17.04
2022-08-30T21:01:09.519Z,17.01
2022-08-30T21:03:36.643Z,16.87
2022-08-30T21:06:03.375Z,16.94
2022-08-30T21:08:30.431Z,16.99
2022-08-30T21:10:57.009Z,16.95
2022-08-30T21:13:23.554Z,16.83
2022-08-30T21:15:54.774Z,16.77
2022-08-30T21:18:22.995Z,16.76
2022-08-30T21:20:49.440Z,16.77
2022-08-30T21:23:17.119Z,16.66
2022-08-30T21:25:44.094Z,16.67
2022-08-30T21:28:10.798Z,16.67
2022-08-30T21:30:37.874Z,16.63
2022-08-30T21:33:07.185Z,16.66
2022-08-30T21:35:53.230Z,16.63
2022-08-30T21:38:20.006Z,16.55
2022-08-30T21:40:48.485Z,16.54
2022-08-30T21:43:16.071Z,16.53
2022-08-30T21:45:43.770Z,16.53
2022-08-30T21:48:11.658Z,16.37
2022-08-30T21:50:40.591Z,16.43
2022-08-30T21:53:07.228Z,16.48
2022-08-30T21:55:33.711Z,16.50
2022-08-30T21:58:00.269Z,16.40
2022-08-30T22:00:27.906Z,16.40
2022-08-30T22:02:54.594Z,16.36
2022-08-30T22:05:21.179Z,16.39
2022-08-30T22:07:47.779Z,16.37
2022-08-30T22:10:14.847Z,16.30
2022-08-30T22:12:41.687Z,16.26
2022-08-30T22:15:09.120Z,16.35
2022-08-30T22:17:35.674Z,16.27
2022-08-30T22:20:02.623Z,16.20
2022-08-30T22:22:29.134Z,16.22
2022-08-30T22:24:56.280Z,16.19
2022-08-30T22:27:22.764Z,16.28
2022-08-30T22:29:49.406Z,16.24
2022-08-30T22:32:17.486Z,16.17
2022-08-30T22:34:45.992Z,16.11
2022-08-30T22:37:12.862Z,16.14
2022-08-30T22:39:39.396Z,16.11
2022-08-30T22:42:06.164Z,16.14
2022-08-30T22:44:32.752Z,16.11
2022-08-30T22:47:02.570Z,16.07
2022-08-30T22:49:29.051Z,15.98
2022-08-30T22:51:55.581Z,16.07
2022-08-30T22:54:22.019Z,16.03
2022-08-30T22:56:49.869Z,16.04
2022-08-30T22:59:16.654Z,16.00
2022-08-30T23:01:43.327Z,15.97
2022-08-30T23:04:11.644Z,15.85
2022-08-30T23:06:38.717Z,15.88
2022-08-30T23:09:06.664Z,15.84
2022-08-30T23:11:34.218Z,15.69
2022-08-30T23:14:03.566Z,15.80
2022-08-30T23:16:30.892Z,15.76
2022-08-30T23:18:57.684Z,15.68
2022-08-30T23:21:27.691Z,15.71
2022-08-30T23:24:15.491Z,15.74
2022-08-30T23:27:03.112Z,15.80
2022-08-30T23:29:48.364Z,15.71
2022-08-30T23:32:35.564Z,15.59
2022-08-30T23:35:20.772Z,15.57
2022-08-30T23:38:13.039Z,15.55
2022-08-30T23:40:58.212Z,15.52
2022-08-30T23:43:43.847Z,15.43
2022-08-30T23:46:28.628Z,15.60
2022-08-30T23:49:16.622Z,15.59
2022-08-30T23:52:01.961Z,15.59
2022-08-30T23:54:47.108Z,15.53
2022-08-30T23:57:33.093Z,15.49
